Terminal Aerodrome Forecast
Issued by NWS Jackson, MS

Home | Current Version | Previous Version | Text Only | Print | Product List | Glossary On
Versions: 1 2 3 4 5 6 7 8 9 10 11 12 13 14 15
000
FTUS44 KJAN 051720
TAFJAN
TAF
KJAN 051720Z 0518/0618 06004KT P6SM -RA OVC004
     FM052000 09006KT 1 1/2SM RA BR VCTS BKN003 OVC010CB
     FM060000 11010KT 2SM BR VCTS BKN003 OVC010CB
     FM060700 20010KT 4SM BR VCSH OVC003
     FM061600 27009KT 4SM BR OVC003=

USA.gov is the U.S. government's official web portal to all federal, state and local government web resources and services.